Date,TemperatureHighF,TemperatureAvgF,TemperatureLowF,DewpointHighF,DewpointAvgF,DewpointLowF,HumidityHigh,HumidityAvg,HumidityLow,PressureMaxIn,PressureMinIn,WindSpeedMaxMPH,WindSpeedAvgMPH,GustSpeedMaxMPH,PrecipitationSumIn
2013-1-1,14,8,2,11,5,-1,92,89,83,0.00,40.00,4,2,6,0.00
2013-1-2,12,6,-1,8,3,-4,90,87,76,0.00,40.00,7,2,9,0.00
2013-1-3,15,7,-1,11,4,-4,91,87,79,0.00,40.00,5,2,7,0.00
2013-1-4,20,10,1,14,7,-1,91,86,70,0.00,40.00,5,2,6,0.00
2013-1-5,19,12,5,15,9,2,92,87,80,0.00,40.00,5,1,8,0.00
2013-1-6,26,19,14,19,16,12,92,86,72,0.00,40.00,7,2,9,0.00
2013-1-7,28,21,13,27,20,11,96,94,90,0.00,40.00,8,4,14,1.18
2013-1-8,34,31,28,32,30,27,97,96,93,0.00,40.00,7,4,11,3.19
2013-1-9,39,35,32,32,31,29,94,84,69,0.00,40.00,6,4,13,0.55
2013-1-10,35,22,17,30,21,16,96,95,81,0.00,40.00,7,3,12,5.39
2013-1-11,19,14,4,16,10,1,94,88,75,0.00,40.00,5,2,11,0.00
2013-1-12,10,3,-3,5,-1,-7,89,83,70,0.00,40.00,4,1,5,0.00
2013-1-13,9,1,-7,3,-3,-10,89,83,69,0.00,40.00,4,1,7,0.00
2013-1-14,13,6,-1,10,3,-4,92,88,83,0.00,40.00,6,1,8,0.04
2013-1-15,23,15,11,16,12,9,93,88,75,0.00,40.00,4,2,6,0.00
2013-1-16,16,10,1,13,8,-2,93,89,82,0.00,40.00,6,1,8,0.00
2013-1-17,16,9,-1,13,6,-4,93,89,83,0.00,40.00,5,2,6,0.00
2013-1-18,19,10,0,14,7,-3,92,87,80,0.00,40.00,6,2,7,0.00
2013-1-19,21,12,1,15,9,-2,92,86,71,0.00,40.00,4,1,5,0.00
2013-1-20,23,14,1,17,10,-2,92,85,73,0.00,40.00,5,1,7,0.00
2013-1-21,25,16,7,18,12,5,93,86,74,0.00,40.00,3,1,5,0.00
2013-1-22,23,15,2,16,11,-1,93,84,72,0.00,40.00,6,1,9,0.00
2013-1-23,38,21,11,32,15,7,92,79,46,0.00,40.00,6,2,9,1.81
2013-1-24,36,33,31,34,32,30,98,96,85,0.00,40.00,6,4,11,2.29
2013-1-25,36,35,33,35,34,32,97,95,93,0.00,40.00,6,4,10,1.82
2013-1-26,37,33,28,35,32,27,98,96,92,0.00,40.00,9,3,14,1.81
2013-1-27,28,22,16,27,20,15,98,91,78,0.00,40.00,4,1,7,0.12
2013-1-28,26,20,14,23,18,12,95,92,80,0.00,40.00,7,3,11,1.08
2013-1-29,29,25,22,26,23,21,96,92,80,0.00,40.00,7,2,10,1.38
2013-1-30,37,30,25,31,28,24,97,92,75,0.00,40.00,6,2,8,0.83
2013-1-31,37,33,27,32,30,26,97,91,80,0.00,40.00,7,3,9,0.08